aviador You're here:

ZBTJ Decoded Metar

TIANJIN in CHINA
Report Time2018-05-28 04:30:00
UTC Time2018-05-28 05:08:46
Flight Rules vfr VFR
Wind350° at 23 Gusting to 33 kt
W.Decomp.*RWY 34: 22.1 kt HW 6.3 kt RCW
W.Rank350° ranks 7
Current wind is above 350° avg. (9.4)
Visibility9999 m
Phenomena:N/A
Clouds:N/A
Expected CloudBase > 12,400 ft AGL from Temp-Dew spread
CeilingNone
Temp29°C (ISA +14)
Dew Point-2°C (13% RH)
Heat Index27.4°C
AAT18.4°C
QNH1006 hPa
Density Alt1,936 ft
Elevation10 ft
Report Wrong Elevation
Raw Report
METAR ZBTJ 280430Z 35012G17MPS CAVOK 29/M02 Q1006 NOSIG=

Extra information for ZBTJ:More info

Metar Taf Metar & Taf Last 4 Metars F.Rules Stats Wind Profile Meteogram Temp Stats Airport Information Weather charts Add Link Nearby VenuesMetar ALERT Operation Metar Decoded Social comments